Time;durP1;ratioP1;P1;durP2;ratioP2;P2;SDS_P1;SDS_P2;PMS_P1;PMS_P2;Temp;Humidity;BMP_temperature;BMP_pressure;BME280_temperature;BME280_humidity;BME280_pressure;Samples;Min_cycle;Max_cycle;Signal;HPM_P1;HPM_P2
2022/11/03 00:00:28;;;;;;;;;43.75;35.50;;;;;15.47;54.72;101369.28;146614;604;46020;-73
2022/11/03 00:03:21;;;;;;;;;45.50;37.00;;;;;15.45;55.01;101373.56;146612;571;46012;-76
2022/11/03 00:06:14;;;;;;;;;52.50;41.50;;;;;15.45;55.16;101381.41;146616;598;46010;-74
2022/11/03 00:09:13;;;;;;;;;49.50;40.50;;;;;15.46;55.58;101377.97;146614;702;46016;-75
2022/11/03 00:12:17;;;;;;;;;;;;;;;;;;;;;
2022/11/03 00:15:31;;;;;;;;;50.50;42.25;;;;;12.96;55.33;100934.16;146611;565;46016;-73
2022/11/03 00:18:28;;;;;;;;;48.00;39.00;;;;;15.43;55.74;101368.28;146615;577;46010;-71
2022/11/03 00:21:45;;;;;;;;;48.25;40.50;;;;;15.41;55.49;101369.03;146611;586;46916;-72
2022/11/03 00:24:44;;;;;;;;;49.00;40.00;;;;;15.39;54.74;101368.06;146614;613;46010;-73
2022/11/03 00:27:39;;;;;;;;;50.00;40.50;;;;;15.35;54.98;101374.91;146613;599;46012;-72
2022/11/03 00:30:44;;;;;;;;;46.75;38.50;;;;;15.37;55.09;101370.62;146613;566;46020;-73
2022/11/03 00:33:39;;;;;;;;;50.00;40.00;;;;;15.38;54.88;101364.56;146610;571;46013;-73
2022/11/03 00:37:08;;;;;;;;;;;;;;;;;;;;;
2022/11/03 00:40:04;;;;;;;;;46.25;37.75;;;;;15.23;54.88;101370.06;146612;615;46017;-73
2022/11/03 00:43:00;;;;;;;;;46.75;37.50;;;;;15.17;55.03;101366.28;146611;622;46021;-72
2022/11/03 00:45:56;;;;;;;;;45.00;37.00;;;;;15.15;54.92;101365.34;146611;611;46012;-71
2022/11/03 00:49:10;;;;;;;;;;;;;;;;;;;;;
2022/11/03 00:52:08;;;;;;;;;45.00;35.50;;;;;15.14;54.63;101359.22;146611;586;46016;-70
2022/11/03 00:55:13;;;;;;;;;45.00;34.75;;;;;15.14;54.99;101367.06;146614;603;46013;-71
2022/11/03 00:58:08;;;;;;;;;42.00;34.50;;;;;15.18;55.03;101362.84;146610;600;46012;-71
2022/11/03 01:01:42;;;;;;;;;;;;;;;;;;;;;
2022/11/03 01:08:10;;;;;;;;;35.50;29.25;;;;;14.99;54.87;101355.94;146636;627;45010;-78
2022/11/03 01:11:53;;;;;;;;;;;;;;;;;;;;;
2022/11/03 01:14:55;;;;;;;;;32.75;29.25;;;;;15.00;54.29;101348.16;146634;637;45020;-76
2022/11/03 01:17:46;;;;;;;;;37.75;31.25;;;;;14.99;54.60;101351.63;146632;669;45017;-77
2022/11/03 01:20:39;;;;;;;;;37.75;30.50;;;;;14.94;54.64;101344.41;146635;634;45020;-76
2022/11/03 01:23:34;;;;;;;;;27.50;25.75;;;;;14.90;54.54;101347.72;146632;576;45915;-76
2022/11/03 01:26:27;;;;;;;;;29.00;25.00;;;;;14.84;54.49;101348.34;146633;566;45010;-78
2022/11/03 01:29:32;;;;;;;;;28.00;24.25;;;;;14.83;53.98;101348.25;146634;570;45012;-72
2022/11/03 01:32:40;;;;;;;;;27.50;25.50;;;;;14.84;54.35;101353.56;146631;580;45011;-72
2022/11/03 01:35:37;;;;;;;;;28.25;25.75;;;;;14.85;54.53;101347.50;146632;588;45016;-73
2022/11/03 01:38:51;;;;;;;;;30.50;27.00;;;;;14.87;54.60;101347.59;146636;601;45020;-72
2022/11/03 01:41:56;;;;;;;;;30.75;27.00;;;;;12.26;54.44;100895.34;146635;563;45012;-73
2022/11/03 01:44:52;;;;;;;;;28.50;25.75;;;;;14.80;54.56;101333.38;146629;587;45020;-72
2022/11/03 01:47:50;;;;;;;;;31.50;27.75;;;;;14.83;54.32;101345.63;146631;605;46918;-72
2022/11/03 01:50:51;;;;;;;;;39.50;33.25;;;;;14.87;54.45;101343.25;146635;616;45029;-76
2022/11/03 01:53:53;;;;;;;;;40.50;33.25;;;;;14.91;54.92;101339.03;146633;603;45918;-72
2022/11/03 01:56:54;;;;;;;;;38.00;33.25;;;;;14.93;54.79;101343.50;146632;618;45021;-73
2022/11/03 01:59:50;;;;;;;;;38.00;32.25;;;;;15.02;54.79;101337.81;146633;571;45012;-73
2022/11/03 02:02:51;;;;;;;;;45.25;37.25;;;;;15.09;54.82;101334.63;146630;622;46010;-75
2022/11/03 02:05:54;;;;;;;;;55.75;43.75;;;;;15.16;54.71;101336.66;146628;569;45016;-70
2022/11/03 02:09:23;;;;;;;;;53.75;42.50;;;;;12.29;54.34;100835.72;146623;576;46010;-72
2022/11/03 02:12:21;;;;;;;;;50.25;41.25;;;;;15.20;54.35;101337.66;146617;650;46016;-71
2022/11/03 02:15:31;;;;;;;;;58.00;46.75;;;;;15.19;54.70;101333.28;146621;644;46020;-71
2022/11/03 02:18:35;;;;;;;;;61.00;46.75;;;;;15.19;54.81;101334.16;146619;648;46012;-71
2022/11/03 02:22:05;;;;;;;;;57.50;45.00;;;;;12.74;54.61;100910.56;146618;630;46012;-71
2022/11/03 02:25:26;;;;;;;;;60.75;47.50;;;;;15.11;54.35;101335.59;146616;570;46013;-70
2022/11/03 02:28:24;;;;;;;;;63.00;50.00;;;;;15.08;55.33;101342.37;146622;589;46010;-70
2022/11/03 02:31:39;;;;;;;;;61.75;49.00;;;;;12.44;55.20;100888.41;146618;722;46016;-70
2022/11/03 02:35:05;;;;;;;;;66.50;51.75;;;;;12.40;55.44;100888.22;146618;601;46020;-70
2022/11/03 02:38:01;;;;;;;;;71.25;56.75;;;;;14.92;56.50;101331.28;146619;622;45025;-73
2022/11/03 02:41:10;;;;;;;;;75.00;62.50;;;;;14.84;56.93;101331.78;146620;671;46021;-70
2022/11/03 02:44:03;;;;;;;;;73.25;60.75;;;;;14.77;57.17;101335.84;146617;632;46914;-72
2022/11/03 02:47:03;;;;;;;;;73.00;61.00;;;;;14.72;57.00;101333.00;146619;599;46023;-70
2022/11/03 02:49:58;;;;;;;;;75.25;64.75;;;;;14.67;57.20;101339.78;146615;616;46016;-69
2022/11/03 02:52:51;;;;;;;;;77.50;68.25;;;;;14.62;57.74;101335.16;146621;585;45030;-70
2022/11/03 02:56:11;;;;;;;;;69.00;55.00;;;;;14.60;57.32;101336.81;146617;564;46012;-71
2022/11/03 02:59:30;;;;;;;;;68.25;53.00;;;;;14.55;57.04;101339.22;146620;594;46020;-75
2022/11/03 03:02:36;;;;;;;;;68.00;52.00;;;;;14.57;57.39;101339.28;146618;592;46013;-76
2022/11/03 03:05:41;;;;;;;;;65.75;52.00;;;;;14.55;56.55;101334.00;146616;563;46020;-72
2022/11/03 03:08:49;;;;;;;;;60.00;48.00;;;;;14.55;56.42;101332.28;146611;628;46017;-76
2022/11/03 03:11:50;;;;;;;;;55.25;44.00;;;;;14.61;56.68;101333.34;146613;609;46010;-73
2022/11/03 03:15:02;;;;;;;;;59.00;46.50;;;;;14.62;56.44;101345.59;146610;602;46016;-73
2022/11/03 03:18:35;;;;;;;;;62.00;48.00;;;;;14.59;56.81;101341.13;146613;589;46021;-74
2022/11/03 03:21:50;;;;;;;;;;;;;;;;;;;;;
2022/11/03 03:25:24;;;;;;;;;61.00;48.00;;;;;14.60;56.67;101344.63;146613;574;46021;-73
2022/11/03 03:28:45;;;;;;;;;60.25;48.00;;;;;14.59;56.51;101346.34;146612;646;46016;-74
2022/11/03 03:31:43;;;;;;;;;59.50;46.25;;;;;14.59;56.94;101346.34;146614;639;46010;-73
2022/11/03 03:34:58;;;;;;;;;59.75;47.25;;;;;14.59;56.48;101340.25;146611;582;46012;-72
2022/11/03 03:37:56;;;;;;;;;54.25;43.50;;;;;14.59;56.98;101343.75;146609;603;46010;-73
2022/11/03 03:40:55;;;;;;;;;56.25;43.75;;;;;14.61;56.66;101341.19;146611;565;46016;-69
2022/11/03 03:43:51;;;;;;;;;55.25;43.00;;;;;13.06;56.57;101076.03;146612;603;48010;-74
2022/11/03 03:46:59;;;;;;;;;55.75;43.00;;;;;14.59;56.60;101343.75;146611;639;46013;-74
2022/11/03 03:49:56;;;;;;;;;48.00;39.50;;;;;14.55;56.66;101341.84;146615;575;46020;-74
2022/11/03 03:52:51;;;;;;;;;49.25;40.00;;;;;14.50;56.67;101340.69;146612;673;46034;-76
2022/11/03 03:55:47;;;;;;;;;47.50;37.00;;;;;14.44;56.90;101345.63;146611;569;46010;-76
2022/11/03 03:58:39;;;;;;;;;45.25;37.25;;;;;14.40;56.91;101343.72;146609;721;46016;-74
2022/11/03 04:01:42;;;;;;;;;49.00;39.75;;;;;14.38;57.08;101348.84;146611;581;46021;-76
2022/11/03 04:04:37;;;;;;;;;49.00;38.00;;;;;14.37;57.12;101354.91;146612;563;46016;-78
2022/11/03 04:07:46;;;;;;;;;42.25;35.25;;;;;14.33;57.61;101352.97;146613;569;46011;-79
2022/11/03 04:22:15;;;;;;;;;45.75;37.00;;;;;14.29;57.54;101357.12;146609;581;46014;-79
2022/11/03 04:23:59;;;;;;;;;45.25;37.00;;;;;14.13;57.95;101362.47;146606;578;48014;-76
2022/11/03 04:27:04;;;;;;;;;;;;;;;;;;;;;
2022/11/03 04:30:37;;;;;;;;;48.25;36.25;;;;;14.08;57.81;101370.09;146610;616;46012;-76
2022/11/03 04:33:38;;;;;;;;;44.75;35.25;;;;;14.08;58.15;101366.56;146614;628;46010;-71
2022/11/03 04:36:42;;;;;;;;;43.50;36.50;;;;;14.08;58.28;101366.56;146612;570;46016;-71
2022/11/03 04:39:40;;;;;;;;;47.50;39.00;;;;;14.07;58.33;101373.50;146613;587;46020;-72
2022/11/03 04:42:44;;;;;;;;;45.50;38.50;;;;;14.07;58.00;101365.69;146613;639;46012;-71
2022/11/03 04:45:50;;;;;;;;;53.25;41.75;;;;;14.07;58.81;101359.56;146613;593;46011;-71
2022/11/03 04:48:46;;;;;;;;;49.50;40.50;;;;;14.07;58.44;101365.69;146613;604;46016;-79
2022/11/03 04:51:41;;;;;;;;;54.50;43.00;;;;;14.08;58.51;101366.56;146612;623;46020;-78
2022/11/03 04:54:36;;;;;;;;;57.00;47.00;;;;;14.09;58.90;101374.47;146609;625;46012;-78
2022/11/03 04:57:44;;;;;;;;;50.50;41.25;;;;;14.12;58.64;101371.12;146613;594;46020;-77
2022/11/03 05:00:37;;;;;;;;;62.25;48.25;;;;;14.14;58.84;101372.06;146612;600;46917;-77
2022/11/03 05:03:38;;;;;;;;;58.75;46.00;;;;;14.14;59.08;101382.50;146615;577;46012;-79
2022/11/03 05:06:35;;;;;;;;;57.00;45.50;;;;;14.12;58.86;101376.34;146612;643;46032;-75
2022/11/03 05:09:43;;;;;;;;;;;;;;;;;;;;;
2022/11/03 05:12:37;;;;;;;;;63.75;50.25;;;;;14.15;58.93;101384.31;146613;573;46012;-75
2022/11/03 05:15:46;;;;;;;;;65.25;50.75;;;;;14.16;58.54;101387.81;146615;597;45021;-75
2022/11/03 05:18:50;;;;;;;;;67.00;53.00;;;;;14.18;59.08;101392.28;146610;577;46016;-74
2022/11/03 05:21:54;;;;;;;;;70.00;54.50;;;;;14.24;59.38;101394.28;146612;633;46030;-70
2022/11/03 05:24:55;;;;;;;;;76.67;68.00;;;;;14.30;59.51;101399.78;146610;582;46016;-71
2022/11/03 05:27:59;;;;;;;;;76.50;66.75;;;;;14.37;59.53;101400.97;146613;571;46020;-71
2022/11/03 05:30:52;;;;;;;;;78.33;70.67;;;;;14.46;59.41;101410.13;146611;578;46012;-70
2022/11/03 05:33:59;;;;;;;;;73.00;60.75;;;;;14.56;58.97;101414.06;146609;597;47010;-70
2022/11/03 05:37:08;;;;;;;;;75.00;67.67;;;;;14.73;59.53;101414.81;146609;583;46916;-76
2022/11/03 05:40:26;;;;;;;;;76.33;66.00;;;;;15.07;58.58;101418.94;146611;594;46020;-74
2022/11/03 05:43:30;;;;;;;;;81.67;73.67;;;;;15.37;58.07;101422.00;146612;612;47916;-74
2022/11/03 05:46:24;;;;;;;;;78.67;72.67;;;;;15.73;57.70;101420.06;146620;631;46028;-74
2022/11/03 05:49:22;;;;;;;;;77.67;70.00;;;;;16.31;57.75;101425.03;146616;651;46016;-73
2022/11/03 05:52:29;;;;;;;;;77.00;69.33;;;;;17.05;56.69;101430.47;146620;625;46010;-74
2022/11/03 05:55:41;;;;;;;;;75.00;68.33;;;;;17.86;55.35;101430.66;146610;626;46016;-74
2022/11/03 05:58:47;;;;;;;;;77.00;68.33;;;;;18.63;52.61;101439.22;146612;610;46020;-73
2022/11/03 06:01:43;;;;;;;;;77.00;69.33;;;;;19.23;52.63;101443.56;146611;652;46016;-73
2022/11/03 06:04:39;;;;;;;;;74.25;65.50;;;;;19.83;49.58;101443.41;146611;609;46020;-72
2022/11/03 06:07:37;;;;;;;;;81.33;73.33;;;;;20.25;48.37;101447.06;146613;571;46014;-72
2022/11/03 06:10:45;;;;;;;;;77.67;69.00;;;;;20.52;48.47;101452.06;146614;570;45916;-74
2022/11/03 06:13:55;;;;;;;;;74.33;64.00;;;;;18.68;48.58;101059.31;146611;603;46015;-73
2022/11/03 06:17:08;;;;;;;;;80.67;76.00;;;;;21.42;47.96;101458.31;146620;586;46020;-72
2022/11/03 06:20:19;;;;;;;;;81.00;73.00;;;;;21.88;46.81;101461.78;146617;597;46016;-73
2022/11/03 06:23:39;;;;;;;;;81.67;76.33;;;;;22.25;46.70;101465.94;146621;579;46021;-72
2022/11/03 06:26:38;;;;;;;;;85.00;76.00;;;;;22.52;45.32;101469.81;146619;759;46033;-74
2022/11/03 06:29:36;;;;;;;;;88.67;78.67;;;;;22.62;45.32;101463.81;146622;575;45021;-73
2022/11/03 06:32:35;;;;;;;;;91.00;81.33;;;;;22.66;43.99;101477.97;146620;569;46012;-74
2022/11/03 06:35:27;;;;;;;;;88.33;76.00;;;;;22.42;43.94;101474.09;146621;572;46010;-74
2022/11/03 06:38:24;;;;;;;;;99.67;92.00;;;;;22.12;42.77;101478.03;146619;659;46017;-74
2022/11/03 06:41:28;;;;;;;;;96.33;87.33;;;;;21.69;45.28;101471.13;146621;766;46010;-78
2022/11/03 06:44:30;;;;;;;;;94.67;89.00;;;;;21.36;46.46;101471.41;146620;603;46014;-72
2022/11/03 06:47:31;;;;;;;;;86.67;82.67;;;;;21.15;46.37;101470.09;146621;596;46020;-73
2022/11/03 06:50:34;;;;;;;;;93.00;83.00;;;;;21.01;47.42;101468.03;146620;653;46015;-72
2022/11/03 06:53:34;;;;;;;;;89.67;82.67;;;;;20.96;47.01;101470.56;146621;564;46020;-72
2022/11/03 06:56:39;;;;;;;;;89.33;80.67;;;;;20.98;46.90;101468.88;146619;576;46918;-72
2022/11/03 06:59:31;;;;;;;;;94.67;83.00;;;;;21.05;46.64;101476.03;146620;564;48010;-71
2022/11/03 07:03:13;;;;;;;;;85.67;80.33;;;;;18.52;47.28;101024.81;146615;744;47014;-71
2022/11/03 07:06:44;;;;;;;;;82.33;72.00;;;;;18.69;47.02;101048.00;146620;632;46031;-71
2022/11/03 07:09:36;;;;;;;;;81.33;74.33;;;;;21.13;44.99;101476.22;146618;574;46016;-71
2022/11/03 07:12:31;;;;;;;;;74.67;66.67;;;;;21.14;47.08;101477.97;146618;602;46020;-71
2022/11/03 07:15:38;;;;;;;;;83.33;76.33;;;;;21.23;47.25;101464.97;146615;599;47016;-70
2022/11/03 07:18:42;;;;;;;;;76.67;71.00;;;;;21.38;46.83;101465.31;146620;595;46020;-69
2022/11/03 07:22:00;;;;;;;;;77.00;71.00;;;;;21.56;46.10;101471.78;146610;589;46017;-66
2022/11/03 07:25:05;;;;;;;;;75.33;70.33;;;;;21.74;46.60;101476.47;146618;602;46012;-70
2022/11/03 07:28:00;;;;;;;;;87.00;81.67;;;;;21.86;45.36;101477.56;146618;712;46013;-69
2022/11/03 07:30:56;;;;;;;;;82.33;77.67;;;;;21.94;45.39;101475.09;146623;571;46020;-68
2022/11/03 07:33:50;;;;;;;;;90.67;80.33;;;;;22.00;44.86;101477.81;146618;761;46016;-70
2022/11/03 07:36:47;;;;;;;;;79.67;75.33;;;;;22.04;45.45;101471.72;146618;608;46021;-69
2022/11/03 07:39:55;;;;;;;;;79.00;77.00;;;;;22.10;45.33;101479.75;146614;638;47012;-70
2022/11/03 07:43:14;;;;;;;;;85.33;80.33;;;;;22.19;46.10;101473.75;146618;696;46020;-69
2022/11/03 07:46:24;;;;;;;;;97.00;88.00;;;;;22.25;45.95;101480.91;146619;813;46016;-70
2022/11/03 07:50:03;;;;;;;;;97.67;84.33;;;;;22.32;46.08;101480.09;146620;819;46012;-69
2022/11/03 07:52:59;;;;;;;;;92.00;86.33;;;;;22.43;45.23;101478.53;146619;589;46917;-69
2022/11/03 07:56:09;;;;;;;;;96.00;90.00;;;;;22.52;44.76;101481.31;146623;642;46010;-70
2022/11/03 07:59:33;;;;;;;;;93.67;85.33;;;;;20.11;45.92;101041.28;146617;572;47012;-70
2022/11/03 08:03:01;;;;;;;;;95.33;84.33;;;;;20.58;45.96;101090.38;146621;569;46020;-69
2022/11/03 08:06:03;;;;;;;;;90.00;81.67;;;;;22.94;45.33;101466.91;146615;605;46578;-69
2022/11/03 08:08:58;;;;;;;;;82.33;72.67;;;;;23.11;43.73;101463.56;146628;566;46020;-70
2022/11/03 08:11:52;;;;;;;;;90.33;81.00;;;;;23.28;43.19;101465.53;146626;904;46016;-69
2022/11/03 08:14:49;;;;;;;;;91.00;81.67;;;;;23.37;42.10;101459.47;146627;571;46021;-69
2022/11/03 08:17:43;;;;;;;;;90.67;80.00;;;;;23.40;42.49;101454.19;146627;569;46012;-70
2022/11/03 08:20:40;;;;;;;;;76.33;72.67;;;;;23.46;43.64;101462.19;146627;566;46033;-69
2022/11/03 08:23:40;;;;;;;;;75.67;68.00;;;;;23.56;43.31;101446.41;146623;607;47014;-69
2022/11/03 08:26:44;;;;;;;;;72.00;64.33;;;;;23.67;43.38;101447.37;146621;575;46020;-69
2022/11/03 08:29:36;;;;;;;;;72.25;63.75;;;;;23.78;42.81;101442.22;146616;597;46012;-70
2022/11/03 08:32:37;;;;;;;;;68.50;56.25;;;;;23.89;42.38;101441.41;146620;626;46020;-69
2022/11/03 08:35:42;;;;;;;;;69.50;59.25;;;;;24.04;42.04;101435.34;146611;578;46582;-70
2022/11/03 08:38:43;;;;;;;;;67.50;56.50;;;;;24.18;43.13;101435.47;146619;718;46020;-69
2022/11/03 08:41:43;;;;;;;;;68.00;54.50;;;;;24.31;43.22;101434.66;146617;638;46016;-69
2022/11/03 08:44:49;;;;;;;;;64.50;52.50;;;;;24.43;42.61;101434.75;146618;590;46020;-69
2022/11/03 08:47:41;;;;;;;;;63.75;51.75;;;;;24.57;42.50;101434.81;146616;606;46016;-68
2022/11/03 08:50:42;;;;;;;;;66.25;53.75;;;;;24.74;42.65;101434.91;146620;596;46010;-69
2022/11/03 08:53:59;;;;;;;;;;;;;;;;;;;;;
2022/11/03 08:56:53;;;;;;;;;59.00;47.00;;;;;24.95;40.88;101427.91;146621;596;46010;-69
2022/11/03 08:59:45;;;;;;;;;63.50;49.50;;;;;24.96;40.72;101427.91;146616;663;46012;-71
2022/11/03 09:02:44;;;;;;;;;56.50;44.75;;;;;24.98;40.57;101427.91;146621;659;46020;-73
2022/11/03 09:05:43;;;;;;;;;63.75;49.75;;;;;25.02;41.09;101419.09;146615;599;46013;-72
2022/11/03 09:08:45;;;;;;;;;60.50;48.00;;;;;25.08;39.67;101425.31;146635;600;45020;-72
2022/11/03 09:11:39;;;;;;;;;57.00;46.75;;;;;25.11;41.68;101420.00;146633;581;45015;-72
2022/11/03 09:14:37;;;;;;;;;55.50;45.50;;;;;25.18;39.96;101418.28;146636;620;45020;-72
2022/11/03 09:17:32;;;;;;;;;53.25;42.50;;;;;25.23;38.87;101424.47;146633;592;45016;-73
2022/11/03 09:20:26;;;;;;;;;59.00;46.25;;;;;25.29;40.42;101423.59;146637;566;45010;-73
2022/11/03 09:23:24;;;;;;;;;56.50;44.75;;;;;25.32;40.54;101412.97;146634;598;45014;-72
2022/11/03 09:26:16;;;;;;;;;59.00;47.25;;;;;25.39;40.32;101419.19;146636;609;46012;-71
2022/11/03 09:29:16;;;;;;;;;61.25;48.25;;;;;25.45;41.46;101413.88;146636;614;45016;-73
2022/11/03 09:32:13;;;;;;;;;61.00;48.25;;;;;25.54;41.01;101408.56;146638;563;45029;-73
2022/11/03 09:35:08;;;;;;;;;60.00;47.50;;;;;25.62;41.30;101411.25;146633;728;45919;-73
2022/11/03 09:38:11;;;;;;;;;;;;;;;;;;;;;
2022/11/03 09:41:09;;;;;;;;;62.00;49.50;;;;;25.78;41.18;101397.94;146632;583;45012;-73
2022/11/03 09:44:15;;;;;;;;;62.50;48.25;;;;;25.80;41.36;101395.31;146633;581;45010;-72
2022/11/03 09:47:27;;;;;;;;;62.50;50.25;;;;;25.86;41.76;101391.78;146636;651;45016;-73
2022/11/03 09:50:31;;;;;;;;;61.75;48.50;;;;;24.51;42.34;101177.62;146635;592;45010;-73
2022/11/03 09:53:25;;;;;;;;;66.75;54.00;;;;;25.88;41.38;101385.56;146630;575;45012;-73
2022/11/03 09:56:25;;;;;;;;;64.00;50.00;;;;;25.93;42.49;101374.97;146635;661;45020;-73
2022/11/03 09:59:27;;;;;;;;;56.25;44.50;;;;;26.01;40.48;101367.84;146630;635;45918;-73
2022/11/03 10:02:46;;;;;;;;;61.50;49.00;;;;;26.12;41.96;101371.34;146636;638;45020;-72
2022/11/03 10:05:42;;;;;;;;;63.75;48.75;;;;;26.27;39.20;101355.37;146634;613;45016;-73
2022/11/03 10:08:47;;;;;;;;;60.00;48.00;;;;;26.40;39.74;101360.66;146622;659;45020;-73
2022/11/03 10:11:43;;;;;;;;;63.25;49.00;;;;;26.48;38.92;101351.78;146618;598;46014;-73
2022/11/03 10:14:46;;;;;;;;;62.00;48.75;;;;;26.34;40.67;101295.06;146620;695;46020;-73
2022/11/03 10:17:39;;;;;;;;;62.00;47.75;;;;;26.68;40.30;101340.16;146615;578;46016;-73
2022/11/03 10:20:42;;;;;;;;;59.50;47.50;;;;;26.74;40.43;101341.91;146620;667;47010;-73
2022/11/03 10:23:42;;;;;;;;;62.75;47.25;;;;;26.73;39.41;101330.38;146617;606;46036;-73
2022/11/03 10:27:02;;;;;;;;;57.50;45.25;;;;;24.63;42.73;100969.94;146621;573;46010;-73
2022/11/03 10:30:25;;;;;;;;;63.25;50.25;;;;;24.54;41.43;100965.53;146609;569;47918;-72
2022/11/03 10:33:44;;;;;;;;;59.75;47.75;;;;;26.67;41.43;101317.12;146619;564;46020;-73
2022/11/03 10:36:38;;;;;;;;;60.75;48.75;;;;;26.68;40.85;101314.44;146617;632;47012;-72
2022/11/03 10:39:36;;;;;;;;;55.25;45.25;;;;;26.77;39.88;101315.28;146621;592;46020;-73
2022/11/03 10:42:36;;;;;;;;;57.75;46.00;;;;;26.83;40.40;101309.91;146617;572;46012;-74
2022/11/03 10:45:29;;;;;;;;;60.00;48.75;;;;;26.88;40.01;101308.97;146618;587;46032;-69
2022/11/03 10:48:25;;;;;;;;;61.75;50.00;;;;;26.94;40.45;101300.94;146615;569;46017;-79
2022/11/03 10:51:19;;;;;;;;;61.50;49.50;;;;;27.04;40.18;101306.19;146620;610;46010;-72
2022/11/03 10:54:25;;;;;;;;;61.50;49.25;;;;;27.08;40.85;101290.22;146616;658;46918;-72
2022/11/03 10:57:26;;;;;;;;;62.75;48.50;;;;;27.13;41.19;101291.06;146615;706;46011;-73
2022/11/03 11:00:33;;;;;;;;;59.75;47.75;;;;;27.15;41.26;101289.28;146614;579;46016;-72
2022/11/03 11:03:28;;;;;;;;;61.00;48.50;;;;;27.18;40.41;101283.94;146620;566;46010;-72
2022/11/03 11:06:30;;;;;;;;;57.75;46.50;;;;;27.14;40.74;101278.69;146617;616;46016;-72
2022/11/03 11:09:37;;;;;;;;;62.25;50.25;;;;;27.19;40.74;101284.81;146614;687;47010;-73
2022/11/03 11:12:30;;;;;;;;;61.50;48.00;;;;;27.22;39.06;101282.13;146612;592;46016;-72
2022/11/03 11:16:23;;;;;;;;;58.50;46.50;;;;;25.17;39.64;100920.25;146611;586;46031;-71
2022/11/03 11:19:19;;;;;;;;;62.75;49.25;;;;;27.32;37.75;101267.87;146611;657;46017;-71
2022/11/03 11:22:18;;;;;;;;;59.75;48.25;;;;;27.40;39.29;101267.78;146613;570;46010;-72
2022/11/03 11:25:16;;;;;;;;;62.50;49.75;;;;;27.50;38.99;101260.56;146612;618;46016;-71
2022/11/03 11:28:21;;;;;;;;;64.00;50.25;;;;;26.67;39.04;101109.62;146613;623;46020;-72
2022/11/03 11:31:40;;;;;;;;;62.00;50.00;;;;;26.65;41.10;101128.25;146612;585;46016;-72
2022/11/03 11:34:47;;;;;;;;;66.00;55.50;;;;;27.62;40.15;101260.44;146613;626;46020;-73
2022/11/03 11:37:54;;;;;;;;;;;;;;;;;;;;;
2022/11/03 11:40:58;;;;;;;;;51.00;40.25;;;;;27.48;37.79;101239.31;146614;608;46010;-71
2022/11/03 11:43:54;;;;;;;;;51.50;40.50;;;;;27.38;37.21;101240.28;146611;563;46012;-74
2022/11/03 11:46:51;;;;;;;;;57.25;45.75;;;;;27.29;38.23;101243.94;146610;608;46021;-72
2022/11/03 11:49:46;;;;;;;;;57.50;45.50;;;;;27.30;37.06;101239.47;146612;624;46016;-73
2022/11/03 11:53:16;;;;;;;;;48.50;39.25;;;;;25.47;38.49;100905.03;146607;563;46020;-71
2022/11/03 11:56:23;;;;;;;;;40.25;34.50;;;;;27.42;33.77;101226.03;146610;610;47018;-72
2022/11/03 11:59:35;;;;;;;;;48.00;37.25;;;;;25.38;34.89;100857.31;146614;570;46019;-72
2022/11/03 12:02:33;;;;;;;;;43.25;34.50;;;;;27.41;34.59;101216.28;146610;594;46017;-71
2022/11/03 12:05:44;;;;;;;;;46.25;38.50;;;;;27.27;36.46;101212.87;146614;570;46020;-70
2022/11/03 12:08:36;;;;;;;;;49.00;40.00;;;;;27.21;35.60;101221.81;146616;576;46016;-71
2022/11/03 12:12:05;;;;;;;;;50.25;39.25;;;;;25.37;38.80;100893.59;146619;661;46021;-72
2022/11/03 12:15:02;;;;;;;;;52.50;42.50;;;;;27.21;36.36;101204.97;146616;568;46016;-71
2022/11/03 12:18:00;;;;;;;;;52.00;42.75;;;;;27.26;36.52;101214.66;146618;594;46021;-71
2022/11/03 12:20:55;;;;;;;;;56.50;46.00;;;;;27.21;38.25;101212.94;146617;614;46034;-70
2022/11/03 12:23:51;;;;;;;;;57.00;45.50;;;;;27.18;37.98;101209.41;146623;576;46010;-73
2022/11/03 12:26:46;;;;;;;;;55.25;44.25;;;;;27.15;37.84;101214.75;146618;569;46016;-73
2022/11/03 12:29:42;;;;;;;;;56.00;44.25;;;;;27.05;37.69;101204.19;146620;595;46020;-73
2022/11/03 12:32:40;;;;;;;;;54.25;44.25;;;;;26.99;38.28;101196.25;146616;603;46918;-72
2022/11/03 12:35:33;;;;;;;;;47.25;38.75;;;;;27.00;37.72;101206.00;146620;658;46010;-72
2022/11/03 12:38:37;;;;;;;;;48.50;40.50;;;;;27.02;37.03;101199.78;146617;586;46012;-71
2022/11/03 12:41:32;;;;;;;;;52.25;41.75;;;;;27.05;36.59;101205.06;146619;623;46020;-74
2022/11/03 12:44:27;;;;;;;;;44.00;36.75;;;;;27.13;34.99;101199.66;146617;594;46016;-73
2022/11/03 12:47:21;;;;;;;;;39.25;33.25;;;;;27.20;34.90;101195.19;146618;641;46021;-71
2022/11/03 12:50:19;;;;;;;;;38.50;31.75;;;;;27.27;35.09;101191.59;146618;574;46012;-73
2022/11/03 12:53:13;;;;;;;;;36.25;32.50;;;;;27.40;34.73;101193.22;146621;611;46012;-73
2022/11/03 12:56:16;;;;;;;;;40.25;34.00;;;;;27.56;34.30;101191.25;146617;603;46014;-73
2022/11/03 12:59:20;;;;;;;;;32.00;29.75;;;;;27.76;33.37;101188.38;146620;631;46010;-72
2022/11/03 13:02:16;;;;;;;;;33.00;30.00;;;;;27.79;34.38;101191.03;146618;576;46017;-74
2022/11/03 13:05:17;;;;;;;;;35.00;31.00;;;;;27.83;35.79;101182.09;146620;620;47010;-73
2022/11/03 13:08:09;;;;;;;;;35.00;30.00;;;;;27.93;33.71;101186.37;146613;578;46012;-73
2022/11/03 13:14:35;;;;;;;;;39.75;30.25;;;;;28.23;34.00;101186.88;146610;592;46012;-73
2022/11/03 13:17:54;;;;;;;;;;;;;;;;;;;;;
2022/11/03 13:21:04;;;;;;;;;34.00;28.75;;;;;28.19;34.51;101174.47;146614;579;46012;-74
2022/11/03 13:24:14;;;;;;;;;31.50;28.00;;;;;28.21;33.10;101172.69;146614;569;46010;-73
2022/11/03 13:27:07;;;;;;;;;31.00;27.00;;;;;28.20;31.91;101174.47;146609;587;47012;-74
2022/11/03 13:30:11;;;;;;;;;24.75;23.00;;;;;28.19;32.26;101166.47;146616;572;45020;-73
2022/11/03 13:33:09;;;;;;;;;29.75;28.00;;;;;28.15;32.67;101170.09;146611;608;46016;-72
2022/11/03 13:36:17;;;;;;;;;;;;;;;;;;;;;
2022/11/03 13:39:27;;;;;;;;;35.00;30.00;;;;;28.24;34.87;101175.31;146611;639;46017;-74
2022/11/03 13:42:25;;;;;;;;;36.50;30.75;;;;;28.14;33.04;101165.69;146615;659;46020;-73
2022/11/03 13:45:19;;;;;;;;;38.75;31.00;;;;;28.01;33.89;101171.19;146610;564;46012;-75
2022/11/03 13:48:17;;;;;;;;;37.75;33.00;;;;;27.84;35.78;101167.84;146610;573;46021;-72
2022/11/03 13:51:20;;;;;;;;;39.25;32.25;;;;;27.72;34.95;101173.31;146612;674;46918;-69
2022/11/03 13:54:32;;;;;;;;;35.75;31.00;;;;;27.55;36.09;101166.41;146615;622;46010;-68
2022/11/03 13:57:32;;;;;;;;;46.75;39.25;;;;;27.39;36.60;101164.81;146614;613;46016;-69
2022/11/03 14:00:33;;;;;;;;;50.25;41.75;;;;;27.22;38.66;101169.44;146616;599;46010;-74
2022/11/03 14:03:31;;;;;;;;;52.25;41.00;;;;;27.00;38.83;101166.97;146611;621;46012;-73
2022/11/03 14:06:30;;;;;;;;;51.50;41.00;;;;;26.76;39.48;101162.75;146615;591;46020;-72
2022/11/03 14:09:30;;;;;;;;;53.50;43.25;;;;;26.49;39.66;101171.81;146612;649;46013;-72
2022/11/03 14:12:34;;;;;;;;;54.50;43.50;;;;;26.21;41.25;101174.62;146614;649;46010;-73
2022/11/03 14:15:35;;;;;;;;;58.50;45.50;;;;;25.99;42.26;101170.34;146613;587;46012;-72
2022/11/03 14:18:45;;;;;;;;;57.25;44.75;;;;;25.76;42.31;101176.63;146613;683;46020;-72
2022/11/03 14:21:50;;;;;;;;;55.25;43.75;;;;;25.52;42.38;101177.56;146610;579;46014;-71
2022/11/03 14:24:43;;;;;;;;;47.50;40.00;;;;;25.37;41.40;101174.09;146612;590;46012;-72
2022/11/03 14:27:47;;;;;;;;;50.75;41.00;;;;;25.24;41.68;101166.16;146609;582;46012;-73
2022/11/03 14:30:45;;;;;;;;;51.00;42.25;;;;;25.19;41.46;101165.25;146613;579;46010;-72